CEB4899 RPVA-RPVI
Flight info
| Callsign | CEB4899 |
|---|---|
| Flight time | 0h 36m |
| Altitude | 20000 |
| Route | POXOS1A POXOS DCT TUBUR DCT BCD BCD2S |
| Aircraft | A320/M-SDE3FGHIRWY/LB1 |
Departure
| Time | 2026-04-25 13:02 |
|---|---|
| Airport | Daniel Z. Romualdez Airport (RPVA) |
Arrival
| Time | 2026-04-25 13:39 |
|---|---|
| Airport | Iloilo International Airport (RPVI) |
| Time | Latitude | Longitude | Altitude | Speed | Heading |
|---|---|---|---|---|---|
| 2026-04-25 12:45 | 11.22636 | 125.02647 | 19 ft | 0 kts | 317° |
| 2026-04-25 12:56 | 11.22637 | 125.02647 | 19 ft | 0 kts | 317° |
| 2026-04-25 12:56 | 11.22638 | 125.02647 | 19 ft | 0 kts | 336° |
| 2026-04-25 12:57 | 11.22642 | 125.02648 | 19 ft | 0 kts | 34° |
| 2026-04-25 12:57 | 11.22635 | 125.02658 | 19 ft | 3 kts | 142° |
| 2026-04-25 12:57 | 11.22607 | 125.02679 | 18 ft | 6 kts | 143° |
| 2026-04-25 12:57 | 11.22570 | 125.02715 | 18 ft | 8 kts | 118° |
| 2026-04-25 12:58 | 11.22554 | 125.02752 | 18 ft | 9 kts | 139° |
| 2026-04-25 12:58 | 11.22486 | 125.02756 | 17 ft | 11 kts | 184° |
| 2026-04-25 12:58 | 11.22405 | 125.02750 | 16 ft | 12 kts | 183° |
| 2026-04-25 12:58 | 11.22285 | 125.02743 | 17 ft | 13 kts | 183° |
| 2026-04-25 12:59 | 11.22195 | 125.02737 | 18 ft | 12 kts | 186° |
| 2026-04-25 12:59 | 11.22136 | 125.02732 | 18 ft | 12 kts | 184° |
| 2026-04-25 12:59 | 11.22045 | 125.02727 | 19 ft | 13 kts | 184° |
| 2026-04-25 12:59 | 11.21919 | 125.02718 | 19 ft | 12 kts | 183° |
| 2026-04-25 13:00 | 11.21880 | 125.02725 | 19 ft | 7 kts | 155° |
| 2026-04-25 13:00 | 11.21846 | 125.02740 | 19 ft | 8 kts | 165° |
| 2026-04-25 13:00 | 11.21815 | 125.02718 | 19 ft | 5 kts | 308° |
| 2026-04-25 13:00 | 11.21839 | 125.02713 | 19 ft | 0 kts | 5° |
| 2026-04-25 13:01 | 11.21842 | 125.02713 | 19 ft | 3 kts | 5° |
| 2026-04-25 13:02 | 11.22226 | 125.02740 | 18 ft | 89 kts | 4° |
| 2026-04-25 13:02 | 11.23070 | 125.02795 | 22 ft | 147 kts | 8° |
| 2026-04-25 13:02 | 11.23762 | 125.02841 | 328 ft | 148 kts | 6° |
| 2026-04-25 13:02 | 11.24801 | 125.02897 | 856 ft | 151 kts | 6° |
| 2026-04-25 13:03 | 11.25847 | 125.02949 | 1433 ft | 153 kts | 7° |
| 2026-04-25 13:03 | 11.26913 | 125.03035 | 1934 ft | 155 kts | 18° |
| 2026-04-25 13:03 | 11.27861 | 125.03587 | 2281 ft | 164 kts | 50° |
| 2026-04-25 13:03 | 11.28426 | 125.05077 | 2763 ft | 184 kts | 91° |
| 2026-04-25 13:04 | 11.28230 | 125.05940 | 3037 ft | 196 kts | 113° |
| 2026-04-25 13:04 | 11.27249 | 125.06969 | 3444 ft | 220 kts | 150° |
| 2026-04-25 13:04 | 11.25089 | 125.06956 | 3946 ft | 259 kts | 205° |
| 2026-04-25 13:04 | 11.23729 | 125.05680 | 4474 ft | 278 kts | 240° |
| 2026-04-25 13:05 | 11.23089 | 125.03797 | 5163 ft | 288 kts | 256° |
| 2026-04-25 13:05 | 11.22375 | 125.01889 | 5890 ft | 294 kts | 237° |
| 2026-04-25 13:05 | 11.21582 | 125.00764 | 6471 ft | 294 kts | 230° |
| 2026-04-25 13:05 | 11.20251 | 124.99172 | 7338 ft | 297 kts | 226° |
| 2026-04-25 13:06 | 11.18867 | 124.97611 | 8199 ft | 299 kts | 226° |
| 2026-04-25 13:06 | 11.16996 | 124.95520 | 9319 ft | 302 kts | 226° |
| 2026-04-25 13:06 | 11.15585 | 124.93935 | 10115 ft | 305 kts | 227° |
| 2026-04-25 13:06 | 11.14637 | 124.92867 | 10578 ft | 310 kts | 227° |
| 2026-04-25 13:07 | 11.13150 | 124.91187 | 11021 ft | 326 kts | 227° |
| 2026-04-25 13:07 | 11.11603 | 124.89436 | 11598 ft | 336 kts | 227° |
| 2026-04-25 13:07 | 11.10035 | 124.87658 | 12329 ft | 339 kts | 227° |
| 2026-04-25 13:07 | 11.08458 | 124.85868 | 13002 ft | 344 kts | 227° |
| 2026-04-25 13:08 | 11.06319 | 124.83445 | 13931 ft | 349 kts | 227° |
| 2026-04-25 13:08 | 11.04691 | 124.81599 | 14609 ft | 352 kts | 227° |
| 2026-04-25 13:08 | 11.03594 | 124.80357 | 15047 ft | 355 kts | 227° |
| 2026-04-25 13:08 | 11.01370 | 124.77840 | 15948 ft | 358 kts | 227° |
| 2026-04-25 13:09 | 11.00260 | 124.76582 | 16385 ft | 360 kts | 227° |
| 2026-04-25 13:09 | 10.98600 | 124.74701 | 16994 ft | 362 kts | 227° |
| 2026-04-25 13:09 | 10.96341 | 124.72143 | 17782 ft | 366 kts | 227° |
| 2026-04-25 13:09 | 10.95192 | 124.70841 | 18160 ft | 368 kts | 227° |
| 2026-04-25 13:10 | 10.93472 | 124.68895 | 18722 ft | 372 kts | 227° |
| 2026-04-25 13:10 | 10.91744 | 124.66938 | 19273 ft | 375 kts | 227° |
| 2026-04-25 13:10 | 10.89997 | 124.64960 | 19729 ft | 379 kts | 227° |
| 2026-04-25 13:10 | 10.87816 | 124.62085 | 19970 ft | 381 kts | 239° |
| 2026-04-25 13:11 | 10.87045 | 124.60461 | 19968 ft | 382 kts | 248° |
| 2026-04-25 13:11 | 10.86310 | 124.57877 | 19975 ft | 382 kts | 257° |
| 2026-04-25 13:11 | 10.85759 | 124.55215 | 19969 ft | 382 kts | 258° |
| 2026-04-25 13:11 | 10.85237 | 124.52576 | 19965 ft | 381 kts | 258° |
| 2026-04-25 13:12 | 10.84529 | 124.49029 | 19964 ft | 381 kts | 258° |
| 2026-04-25 13:12 | 10.84172 | 124.47269 | 19960 ft | 382 kts | 257° |
| 2026-04-25 13:12 | 10.83450 | 124.43742 | 19956 ft | 382 kts | 257° |
| 2026-04-25 13:12 | 10.83266 | 124.42847 | 19956 ft | 382 kts | 257° |
| 2026-04-25 13:13 | 10.82538 | 124.39334 | 19951 ft | 382 kts | 257° |
| 2026-04-25 13:13 | 10.81990 | 124.36692 | 19952 ft | 382 kts | 257° |
| 2026-04-25 13:13 | 10.81444 | 124.34063 | 19948 ft | 382 kts | 257° |
| 2026-04-25 13:13 | 10.80703 | 124.30482 | 19939 ft | 382 kts | 257° |
| 2026-04-25 13:14 | 10.80338 | 124.28723 | 19937 ft | 381 kts | 257° |
| 2026-04-25 13:14 | 10.79787 | 124.26067 | 19932 ft | 382 kts | 257° |
| 2026-04-25 13:14 | 10.79048 | 124.22516 | 19934 ft | 391 kts | 257° |
| 2026-04-25 13:14 | 10.78668 | 124.20698 | 19936 ft | 404 kts | 257° |
| 2026-04-25 13:15 | 10.78076 | 124.17862 | 19930 ft | 415 kts | 257° |
| 2026-04-25 13:15 | 10.77274 | 124.14016 | 19929 ft | 418 kts | 257° |
| 2026-04-25 13:15 | 10.76868 | 124.12076 | 19928 ft | 418 kts | 257° |
| 2026-04-25 13:15 | 10.76056 | 124.08186 | 19924 ft | 419 kts | 257° |
| 2026-04-25 13:16 | 10.75659 | 124.06288 | 19925 ft | 420 kts | 257° |
| 2026-04-25 13:16 | 10.75050 | 124.03377 | 19928 ft | 420 kts | 257° |
| 2026-04-25 13:16 | 10.74242 | 123.99509 | 19927 ft | 419 kts | 257° |
| 2026-04-25 13:16 | 10.73840 | 123.97585 | 19927 ft | 419 kts | 257° |
| 2026-04-25 13:17 | 10.73242 | 123.94648 | 19927 ft | 420 kts | 259° |
| 2026-04-25 13:17 | 10.72801 | 123.90730 | 19929 ft | 420 kts | 267° |
| 2026-04-25 13:17 | 10.72771 | 123.88726 | 19927 ft | 420 kts | 271° |
| 2026-04-25 13:17 | 10.72896 | 123.85779 | 19926 ft | 420 kts | 273° |
| 2026-04-25 13:18 | 10.73069 | 123.82837 | 19931 ft | 420 kts | 273° |
| 2026-04-25 13:18 | 10.73251 | 123.79835 | 19931 ft | 420 kts | 273° |
| 2026-04-25 13:18 | 10.73426 | 123.76893 | 19930 ft | 420 kts | 273° |
| 2026-04-25 13:18 | 10.73600 | 123.73898 | 19733 ft | 419 kts | 273° |
| 2026-04-25 13:19 | 10.73769 | 123.70931 | 19498 ft | 418 kts | 273° |
| 2026-04-25 13:19 | 10.73936 | 123.67948 | 19258 ft | 415 kts | 273° |
| 2026-04-25 13:19 | 10.74099 | 123.65027 | 19023 ft | 414 kts | 273° |
| 2026-04-25 13:19 | 10.74206 | 123.63094 | 18866 ft | 413 kts | 273° |
| 2026-04-25 13:20 | 10.74422 | 123.59180 | 18548 ft | 411 kts | 273° |
| 2026-04-25 13:20 | 10.74582 | 123.56283 | 18313 ft | 410 kts | 273° |
| 2026-04-25 13:20 | 10.74743 | 123.53366 | 18074 ft | 408 kts | 273° |
| 2026-04-25 13:20 | 10.74954 | 123.49544 | 17761 ft | 406 kts | 273° |
| 2026-04-25 13:21 | 10.75113 | 123.46652 | 17536 ft | 404 kts | 273° |
| 2026-04-25 13:21 | 10.75216 | 123.44770 | 17379 ft | 400 kts | 273° |
| 2026-04-25 13:21 | 10.75369 | 123.41966 | 17042 ft | 392 kts | 273° |
| 2026-04-25 13:21 | 10.75568 | 123.38329 | 16636 ft | 380 kts | 273° |
| 2026-04-25 13:22 | 10.75664 | 123.36571 | 16483 ft | 373 kts | 273° |
| 2026-04-25 13:22 | 10.75806 | 123.33959 | 16260 ft | 363 kts | 273° |
| 2026-04-25 13:22 | 10.75944 | 123.31391 | 16034 ft | 357 kts | 273° |
| 2026-04-25 13:23 | 10.76262 | 123.25497 | 15503 ft | 356 kts | 273° |
| 2026-04-25 13:23 | 10.76351 | 123.23843 | 15352 ft | 355 kts | 273° |
| 2026-04-25 13:23 | 10.76485 | 123.21348 | 15122 ft | 354 kts | 273° |
| 2026-04-25 13:23 | 10.76622 | 123.18816 | 14899 ft | 352 kts | 273° |
| 2026-04-25 13:24 | 10.76800 | 123.15506 | 14511 ft | 350 kts | 273° |
| 2026-04-25 13:24 | 10.76887 | 123.13884 | 14271 ft | 349 kts | 273° |
| 2026-04-25 13:24 | 10.77063 | 123.10599 | 13753 ft | 346 kts | 273° |
| 2026-04-25 13:24 | 10.77146 | 123.08969 | 13481 ft | 345 kts | 271° |
| 2026-04-25 13:25 | 10.76869 | 123.06567 | 13011 ft | 343 kts | 254° |
| 2026-04-25 13:25 | 10.75845 | 123.03517 | 12439 ft | 342 kts | 249° |
| 2026-04-25 13:25 | 10.75296 | 123.02007 | 12135 ft | 341 kts | 249° |
| 2026-04-25 13:25 | 10.74500 | 122.99752 | 11729 ft | 340 kts | 250° |
| 2026-04-25 13:26 | 10.73735 | 122.97495 | 11300 ft | 338 kts | 251° |
| 2026-04-25 13:26 | 10.72987 | 122.95213 | 10885 ft | 337 kts | 251° |
| 2026-04-25 13:26 | 10.72258 | 122.92950 | 10481 ft | 335 kts | 251° |
| 2026-04-25 13:26 | 10.71308 | 122.89961 | 10062 ft | 327 kts | 252° |
| 2026-04-25 13:27 | 10.70863 | 122.88551 | 10015 ft | 311 kts | 252° |
| 2026-04-25 13:27 | 10.70006 | 122.85824 | 9796 ft | 300 kts | 252° |
| 2026-04-25 13:27 | 10.69581 | 122.84469 | 9572 ft | 299 kts | 252° |
| 2026-04-25 13:27 | 10.68743 | 122.81799 | 9147 ft | 297 kts | 252° |
| 2026-04-25 13:28 | 10.68112 | 122.79790 | 8809 ft | 296 kts | 252° |
| 2026-04-25 13:28 | 10.67911 | 122.79150 | 8702 ft | 295 kts | 252° |
| 2026-04-25 13:28 | 10.67078 | 122.76495 | 8271 ft | 293 kts | 252° |
| 2026-04-25 13:28 | 10.66456 | 122.74516 | 7833 ft | 296 kts | 252° |
| 2026-04-25 13:29 | 10.65625 | 122.71867 | 7387 ft | 292 kts | 252° |
| 2026-04-25 13:29 | 10.65013 | 122.69920 | 7132 ft | 287 kts | 252° |
| 2026-04-25 13:29 | 10.64407 | 122.67994 | 6856 ft | 283 kts | 252° |
| 2026-04-25 13:30 | 10.63221 | 122.64223 | 6293 ft | 276 kts | 252° |
| 2026-04-25 13:30 | 10.62832 | 122.62989 | 6100 ft | 274 kts | 252° |
| 2026-04-25 13:30 | 10.62250 | 122.61135 | 5803 ft | 272 kts | 252° |
| 2026-04-25 13:31 | 10.61110 | 122.57512 | 5229 ft | 267 kts | 252° |
| 2026-04-25 13:31 | 10.60542 | 122.55705 | 4944 ft | 265 kts | 252° |
| 2026-04-25 13:31 | 10.59793 | 122.53329 | 4571 ft | 263 kts | 252° |
| 2026-04-25 13:31 | 10.59241 | 122.51576 | 4308 ft | 259 kts | 252° |
| 2026-04-25 13:32 | 10.58878 | 122.50418 | 4279 ft | 251 kts | 253° |
| 2026-04-25 13:32 | 10.58684 | 122.48722 | 4185 ft | 239 kts | 282° |
| 2026-04-25 13:32 | 10.59624 | 122.46760 | 3886 ft | 229 kts | 307° |
| 2026-04-25 13:32 | 10.60538 | 122.45428 | 3645 ft | 227 kts | 308° |
| 2026-04-25 13:33 | 10.61132 | 122.44553 | 3489 ft | 226 kts | 307° |
| 2026-04-25 13:33 | 10.62032 | 122.43253 | 3240 ft | 223 kts | 315° |
| 2026-04-25 13:33 | 10.63297 | 122.42423 | 3011 ft | 209 kts | 351° |
| 2026-04-25 13:33 | 10.64231 | 122.42333 | 2949 ft | 197 kts | 10° |
| 2026-04-25 13:34 | 10.65933 | 122.42862 | 2974 ft | 185 kts | 24° |
| 2026-04-25 13:34 | 10.67457 | 122.43459 | 2852 ft | 167 kts | 24° |
| 2026-04-25 13:34 | 10.68524 | 122.43868 | 2738 ft | 155 kts | 24° |
| 2026-04-25 13:34 | 10.69182 | 122.44119 | 2674 ft | 150 kts | 24° |
| 2026-04-25 13:35 | 10.70166 | 122.44490 | 2597 ft | 149 kts | 24° |
| 2026-04-25 13:35 | 10.71151 | 122.44860 | 2459 ft | 150 kts | 23° |
| 2026-04-25 13:35 | 10.72449 | 122.45345 | 2216 ft | 148 kts | 22° |
| 2026-04-25 13:35 | 10.73416 | 122.45703 | 2007 ft | 148 kts | 22° |
| 2026-04-25 13:36 | 10.74063 | 122.45943 | 1875 ft | 148 kts | 21° |
| 2026-04-25 13:36 | 10.75360 | 122.46424 | 1603 ft | 145 kts | 21° |
| 2026-04-25 13:36 | 10.75987 | 122.46654 | 1461 ft | 139 kts | 21° |
| 2026-04-25 13:36 | 10.76866 | 122.46979 | 1278 ft | 132 kts | 20° |
| 2026-04-25 13:37 | 10.77730 | 122.47298 | 1116 ft | 132 kts | 20° |
| 2026-04-25 13:37 | 10.78894 | 122.47729 | 885 ft | 132 kts | 20° |
| 2026-04-25 13:37 | 10.79468 | 122.47943 | 768 ft | 132 kts | 19° |
| 2026-04-25 13:37 | 10.80622 | 122.48370 | 532 ft | 131 kts | 18° |
| 2026-04-25 13:38 | 10.81193 | 122.48575 | 405 ft | 130 kts | 17° |
| 2026-04-25 13:38 | 10.82336 | 122.48983 | 206 ft | 129 kts | 18° |
| 2026-04-25 13:38 | 10.82893 | 122.49184 | 176 ft | 114 kts | 19° |
| 2026-04-25 13:38 | 10.83480 | 122.49401 | 176 ft | 64 kts | 20° |
| 2026-04-25 13:39 | 10.83746 | 122.49501 | 175 ft | 22 kts | 20° |
| 2026-04-25 13:39 | 10.83853 | 122.49541 | 175 ft | 13 kts | 20° |
| 2026-04-25 13:39 | 10.83928 | 122.49553 | 175 ft | 5 kts | 36° |
| 2026-04-25 13:39 | 10.83900 | 122.49561 | 175 ft | 7 kts | 203° |
| 2026-04-25 13:40 | 10.83845 | 122.49538 | 175 ft | 9 kts | 202° |
| 2026-04-25 13:40 | 10.83779 | 122.49513 | 175 ft | 10 kts | 198° |
| 2026-04-25 13:40 | 10.83703 | 122.49487 | 175 ft | 12 kts | 198° |
| 2026-04-25 13:40 | 10.83618 | 122.49458 | 175 ft | 11 kts | 199° |
| 2026-04-25 13:41 | 10.83557 | 122.49498 | 175 ft | 9 kts | 112° |
| 2026-04-25 13:41 | 10.83540 | 122.49541 | 175 ft | 10 kts | 112° |
| 2026-04-25 13:41 | 10.83501 | 122.49633 | 175 ft | 10 kts | 108° |
| 2026-04-25 13:41 | 10.83446 | 122.49676 | 175 ft | 11 kts | 180° |
| 2026-04-25 13:42 | 10.83365 | 122.49651 | 175 ft | 12 kts | 200° |
| 2026-04-25 13:42 | 10.83307 | 122.49628 | 175 ft | 13 kts | 200° |
| 2026-04-25 13:42 | 10.83215 | 122.49594 | 175 ft | 14 kts | 200° |
| 2026-04-25 13:42 | 10.83158 | 122.49574 | 175 ft | 5 kts | 186° |
| 2026-04-25 13:43 | 10.83133 | 122.49598 | 175 ft | 1 kts | 111° |
| 2026-04-25 13:43 | 10.83126 | 122.49616 | 175 ft | 3 kts | 111° |
| 2026-04-25 13:43 | 10.83115 | 122.49646 | 175 ft | 2 kts | 109° |
| 2026-04-25 13:43 | 10.83113 | 122.49651 | 175 ft | 0 kts | 109° |